Time;durP1;ratioP1;P1;durP2;ratioP2;P2;SDS_P1;SDS_P2;PMS_P1;PMS_P2;Temp;Humidity;BMP_temperature;BMP_pressure;BME280_temperature;BME280_humidity;BME280_pressure;Samples;Min_cycle;Max_cycle;Signal;HPM_P1;HPM_P2
2022/08/09 00:01:14;;;;;;;3.90;2.00;;;27.20;45.60;;;;;;6244364;22;20013;-63
2022/08/09 00:03:40;;;;;;;3.85;1.90;;;27.20;45.70;;;;;;6244502;23;20008;-63
2022/08/09 00:06:06;;;;;;;8.07;1.90;;;27.20;45.60;;;;;;6244386;22;20362;-62
2022/08/09 00:08:31;;;;;;;5.07;1.90;;;27.10;45.60;;;;;;6243787;23;20008;-63
2022/08/09 00:10:58;;;;;;;7.22;1.98;;;27.10;45.60;;;;;;6244665;23;20367;-63
2022/08/09 00:13:24;;;;;;;7.20;1.92;;;27.10;45.60;;;;;;6244710;22;20000;-63
2022/08/09 00:15:51;;;;;;;4.10;2.22;;;27.10;46.30;;;;;;6244476;23;20015;-63
2022/08/09 00:18:17;;;;;;;4.30;1.80;;;27.10;45.60;;;;;;6244182;22;20442;-63
2022/08/09 00:20:42;;;;;;;6.22;1.90;;;27.10;45.80;;;;;;6244223;22;19996;-63
2022/08/09 00:23:08;;;;;;;2.97;1.92;;;27.10;45.80;;;;;;6244790;22;20016;-63
2022/08/09 00:25:34;;;;;;;3.58;1.92;;;27.10;45.80;;;;;;6244388;23;20476;-64
2022/08/09 00:28:00;;;;;;;5.07;1.80;;;27.10;45.80;;;;;;6244102;23;20045;-63
2022/08/09 00:30:25;;;;;;;2.80;1.70;;;27.10;45.90;;;;;;6244380;22;20288;-63
2022/08/09 00:32:51;;;;;;;3.47;1.92;;;27.10;46.00;;;;;;6244511;22;20327;-63
2022/08/09 00:35:17;;;;;;;6.07;1.90;;;27.10;46.00;;;;;;6244297;23;20076;-64
2022/08/09 00:37:42;;;;;;;2.85;1.75;;;27.10;46.10;;;;;;6244605;22;20008;-63
2022/08/09 00:40:09;;;;;;;7.53;2.00;;;27.10;46.30;;;;;;6244494;22;20093;-63
2022/08/09 00:42:34;;;;;;;4.70;1.70;;;27.10;46.40;;;;;;6244706;22;20004;-63
2022/08/09 00:45:00;;;;;;;3.25;1.98;;;27.00;46.30;;;;;;6244213;22;20112;-63
2022/08/09 00:47:26;;;;;;;5.18;2.10;;;27.00;46.30;;;;;;6243926;23;20431;-63
2022/08/09 00:49:52;;;;;;;4.50;1.75;;;27.00;46.50;;;;;;6244172;22;20100;-63
2022/08/09 00:52:19;;;;;;;3.75;1.90;;;27.00;46.80;;;;;;6244133;22;20008;-63
2022/08/09 00:54:47;;;;;;;3.28;1.73;;;26.90;46.90;;;;;;6244581;22;20026;-63
2022/08/09 00:57:13;;;;;;;5.00;1.77;;;26.90;46.90;;;;;;6244308;23;20044;-63
2022/08/09 00:59:41;;;;;;;3.92;1.90;;;26.90;46.90;;;;;;6240387;23;20065;-64
2022/08/09 01:02:07;;;;;;;5.05;1.90;;;26.90;46.70;;;;;;6241111;22;20008;-64
2022/08/09 01:04:45;;;;;;;3.45;2.10;;;26.90;46.60;;;;;;6242089;22;20004;-63
2022/08/09 01:07:30;;;;;;;5.65;2.05;;;26.90;46.70;;;;;;6243581;23;20039;-61
2022/08/09 01:10:14;;;;;;;2.53;1.80;;;26.90;46.90;;;;;;6244363;22;20362;-63
2022/08/09 01:12:54;;;;;;;2.65;1.90;;;26.80;47.00;;;;;;6243706;23;20435;-63
2022/08/09 01:15:27;;;;;;;5.35;1.67;;;26.80;47.00;;;;;;6244023;22;20000;-63
2022/08/09 01:18:03;;;;;;;6.18;2.10;;;26.80;46.80;;;;;;6245477;22;20035;-64
2022/08/09 01:20:52;;;;;;;5.57;1.90;;;26.80;46.80;;;;;;6245639;22;20439;-63
2022/08/09 01:23:30;;;;;;;7.88;2.20;;;26.70;46.90;;;;;;6246330;22;20048;-63
2022/08/09 01:26:01;;;;;;;6.00;2.10;;;26.70;46.80;;;;;;6246008;22;20031;-63
2022/08/09 01:28:29;;;;;;;3.70;1.73;;;26.70;46.70;;;;;;6244923;23;20016;-63
2022/08/09 01:30:57;;;;;;;3.85;1.60;;;26.70;46.60;;;;;;6245957;22;20008;-63
2022/08/09 01:33:26;;;;;;;6.50;2.05;;;26.70;46.50;;;;;;6245642;22;20327;-63
2022/08/09 01:36:04;;;;;;;8.15;2.35;;;26.60;46.40;;;;;;6245485;22;20438;-63
2022/08/09 01:38:35;;;;;;;3.42;1.63;;;26.70;46.60;;;;;;6245812;22;19996;-64
2022/08/09 01:41:17;;;;;;;6.23;1.80;;;26.60;46.50;;;;;;6245931;22;20331;-63
2022/08/09 01:43:48;;;;;;;2.20;1.52;;;26.60;46.50;;;;;;6246022;22;20027;-63
2022/08/09 01:46:15;;;;;;;2.65;1.70;;;26.60;46.50;;;;;;6246073;22;20000;-63
2022/08/09 01:48:43;;;;;;;3.20;1.60;;;26.60;46.70;;;;;;6245597;22;20051;-63
2022/08/09 01:51:09;;;;;;;4.20;1.63;;;26.60;46.90;;;;;;6245653;22;20000;-63
2022/08/09 01:53:36;;;;;;;4.38;1.67;;;26.50;47.00;;;;;;6245670;23;20423;-63
2022/08/09 01:56:05;;;;;;;6.43;1.70;;;26.50;46.80;;;;;;6246656;22;20007;-63
2022/08/09 01:58:32;;;;;;;4.28;1.73;;;26.50;46.80;;;;;;6247570;22;20000;-63
2022/08/09 02:00:59;;;;;;;4.47;1.75;;;26.50;46.70;;;;;;6246997;22;20514;-72
2022/08/09 02:03:28;;;;;;;2.33;1.60;;;26.50;46.80;;;;;;6246485;22;20012;-72
2022/08/09 02:05:55;;;;;;;3.78;1.90;;;26.50;47.00;;;;;;6247246;22;20004;-74
2022/08/09 02:08:23;;;;;;;2.10;1.40;;;26.50;47.00;;;;;;6247070;22;20065;-72
2022/08/09 02:10:53;;;;;;;3.80;1.60;;;26.40;46.80;;;;;;6247166;22;20000;-72
2022/08/09 02:13:22;;;;;;;4.32;1.65;;;26.40;46.80;;;;;;6246937;22;20050;-74
2022/08/09 02:15:51;;;;;;;5.20;1.80;;;26.40;47.00;;;;;;6246811;22;20023;-74
2022/08/09 02:18:21;;;;;;;4.65;1.50;;;26.40;47.80;;;;;;6247374;22;20012;-76
2022/08/09 02:20:54;;;;;;;1.83;1.40;;;26.40;47.30;;;;;;6247130;22;20000;-63
2022/08/09 02:23:32;;;;;;;2.80;1.50;;;26.30;47.30;;;;;;6246908;22;20338;-63
2022/08/09 02:26:00;;;;;;;4.78;1.40;;;26.30;47.10;;;;;;6246867;23;20053;-65
2022/08/09 02:28:50;;;;;;;3.35;1.67;;;26.30;46.80;;;;;;6246137;22;20020;-74
2022/08/09 02:31:26;;;;;;;2.70;1.40;;;26.30;46.70;;;;;;6242527;23;20090;-73
2022/08/09 02:33:55;;;;;;;7.18;1.95;;;26.20;46.80;;;;;;6246801;22;20000;-73
2022/08/09 02:36:31;;;;;;;4.68;1.60;;;26.20;46.80;;;;;;6247372;22;20012;-68
2022/08/09 02:39:01;;;;;;;2.40;1.70;;;26.20;47.00;;;;;;6247051;22;20016;-71
2022/08/09 02:41:48;;;;;;;4.72;1.83;;;26.20;46.60;;;;;;6247076;22;20331;-74
2022/08/09 02:44:26;;;;;;;4.13;1.45;;;26.20;46.80;;;;;;6246479;22;20465;-72
2022/08/09 02:46:55;;;;;;;6.57;1.70;;;26.20;46.50;;;;;;6246507;22;20012;-76
2022/08/09 02:49:21;;;;;;;6.35;1.30;;;26.10;46.30;;;;;;6246726;22;20035;-74
2022/08/09 02:51:52;;;;;;;4.20;1.13;;;26.10;46.30;;;;;;6246988;23;20003;-75
2022/08/09 02:54:21;;;;;;;9.35;1.40;;;26.10;46.30;;;;;;6246517;22;20015;-63
2022/08/09 02:56:48;;;;;;;4.50;1.50;;;26.00;46.30;;;;;;6246579;22;20071;-63
2022/08/09 02:59:16;;;;;;;4.53;1.40;;;26.00;46.10;;;;;;6246699;22;20423;-75
2022/08/09 03:01:43;;;;;;;2.60;1.60;;;26.00;46.00;;;;;;6246669;22;20004;-68
2022/08/09 03:04:11;;;;;;;5.25;1.20;;;26.00;45.90;;;;;;6246817;22;20040;-74
2022/08/09 03:06:39;;;;;;;5.88;1.40;;;26.00;46.10;;;;;;6246617;22;20008;-74
2022/08/09 03:09:06;;;;;;;3.00;1.50;;;26.00;46.00;;;;;;6246184;22;20007;-63
2022/08/09 03:11:33;;;;;;;2.88;1.33;;;25.90;46.10;;;;;;6246848;22;20015;-63
2022/08/09 03:14:00;;;;;;;5.20;1.30;;;25.90;46.10;;;;;;6246915;22;20085;-73
2022/08/09 03:16:27;;;;;;;7.47;1.83;;;25.90;46.10;;;;;;6246767;22;20015;-74
2022/08/09 03:18:54;;;;;;;3.55;1.20;;;25.90;46.10;;;;;;6246431;22;20050;-63
2022/08/09 03:21:22;;;;;;;5.75;1.38;;;25.90;45.90;;;;;;6245956;22;20004;-63
2022/08/09 03:23:48;;;;;;;7.75;1.20;;;25.90;45.70;;;;;;6246018;22;20000;-63
2022/08/09 03:26:15;;;;;;;5.95;2.03;;;25.90;45.80;;;;;;6246338;22;20411;-74
2022/08/09 03:28:42;;;;;;;3.88;1.40;;;25.90;46.00;;;;;;6246009;22;20024;-73
2022/08/09 03:31:09;;;;;;;5.43;1.58;;;25.90;46.00;;;;;;6246309;22;20008;-75
2022/08/09 03:33:37;;;;;;;5.07;1.30;;;25.80;46.10;;;;;;6246124;22;20004;-73
2022/08/09 03:36:03;;;;;;;1.90;1.30;;;25.80;46.10;;;;;;6246284;22;19996;-63
2022/08/09 03:38:29;;;;;;;6.32;1.38;;;25.80;46.10;;;;;;6245925;22;20053;-63
2022/08/09 03:40:55;;;;;;;1.85;1.13;;;25.80;46.10;;;;;;6245500;23;20423;-61
2022/08/09 03:43:20;;;;;;;2.83;1.25;;;25.80;46.20;;;;;;6245780;22;20008;-63
2022/08/09 03:45:46;;;;;;;3.97;1.35;;;25.70;46.20;;;;;;6245667;23;20008;-64
2022/08/09 03:48:12;;;;;;;1.90;1.50;;;25.70;46.10;;;;;;6246063;23;20134;-63
2022/08/09 03:50:39;;;;;;;1.50;1.10;;;25.70;46.10;;;;;;6246117;23;20421;-64
2022/08/09 03:53:08;;;;;;;5.78;1.40;;;25.70;46.20;;;;;;6245646;22;20008;-74
2022/08/09 03:55:34;;;;;;;2.13;1.20;;;25.70;46.00;;;;;;6245937;22;20004;-74
2022/08/09 03:58:00;;;;;;;2.88;1.40;;;25.70;46.00;;;;;;6245712;22;20000;-75
2022/08/09 04:00:26;;;;;;;4.78;1.50;;;25.60;45.90;;;;;;6246264;22;20327;-74
2022/08/09 04:02:54;;;;;;;6.47;1.40;;;25.70;46.00;;;;;;6245794;23;20087;-63
2022/08/09 04:05:20;;;;;;;2.97;1.70;;;25.60;46.00;;;;;;6245756;22;20000;-72
2022/08/09 04:07:46;;;;;;;4.20;1.40;;;25.60;45.90;;;;;;6245819;22;20054;-74
2022/08/09 04:10:13;;;;;;;6.20;1.60;;;25.60;46.00;;;;;;6245819;22;20034;-71
2022/08/09 04:12:46;;;;;;;3.75;1.20;;;25.60;46.00;;;;;;6245851;22;20000;-68
2022/08/09 04:15:14;;;;;;;2.47;1.40;;;25.60;45.90;;;;;;6245783;22;19996;-71
2022/08/09 04:17:41;;;;;;;3.80;1.13;;;25.60;46.10;;;;;;6246030;22;20113;-68
2022/08/09 04:20:09;;;;;;;4.30;1.35;;;25.50;46.00;;;;;;6246054;22;20012;-71
2022/08/09 04:22:35;;;;;;;3.70;1.60;;;25.50;45.90;;;;;;6246152;22;20008;-65
2022/08/09 04:25:01;;;;;;;7.05;1.30;;;25.50;45.90;;;;;;6245825;22;20004;-64
2022/08/09 04:27:27;;;;;;;2.55;1.50;;;25.50;46.30;;;;;;6245313;22;20024;-70
2022/08/09 04:29:53;;;;;;;2.40;1.27;;;25.50;46.40;;;;;;6245649;23;20023;-70
2022/08/09 04:32:18;;;;;;;3.47;1.75;;;25.50;46.50;;;;;;6245730;23;20007;-64
2022/08/09 04:34:44;;;;;;;4.88;1.50;;;25.50;46.40;;;;;;6245660;23;20431;-70
2022/08/09 04:37:10;;;;;;;4.72;1.40;;;25.50;46.20;;;;;;6245522;23;20075;-64
2022/08/09 04:39:36;;;;;;;2.50;1.60;;;25.50;46.30;;;;;;6245554;23;20011;-64
2022/08/09 04:42:01;;;;;;;10.02;1.90;;;25.50;46.50;;;;;;6245512;23;20000;-64
2022/08/09 04:44:27;;;;;;;5.30;1.45;;;25.50;46.60;;;;;;6245846;22;20015;-64
2022/08/09 04:46:53;;;;;;;4.10;1.90;;;25.50;46.50;;;;;;6245676;23;20028;-64
2022/08/09 04:49:19;;;;;;;8.52;1.33;;;25.50;46.30;;;;;;6245787;22;20008;-64
2022/08/09 04:51:44;;;;;;;7.50;1.60;;;25.50;46.40;;;;;;6246985;22;20000;-71
2022/08/09 04:54:10;;;;;;;3.22;1.60;;;25.50;46.40;;;;;;6247290;23;20035;-72
2022/08/09 04:56:36;;;;;;;4.45;1.30;;;25.50;46.60;;;;;;6247512;22;20004;-71
2022/08/09 04:59:01;;;;;;;5.32;1.55;;;25.50;46.40;;;;;;6247478;23;20083;-69
2022/08/09 05:01:27;;;;;;;5.45;1.10;;;25.50;45.80;;;;;;6247358;23;20031;-64
2022/08/09 05:03:53;;;;;;;2.10;1.10;;;25.60;45.70;;;;;;6247538;23;20000;-63
2022/08/09 05:06:19;;;;;;;1.90;1.25;;;;;;;;;;6247304;23;20058;-65
2022/08/09 05:08:45;;;;;;;5.07;1.30;;;25.60;45.00;;;;;;6247344;23;20015;-73
2022/08/09 05:11:10;;;;;;;11.10;1.30;;;25.60;45.60;;;;;;6247315;23;20000;-68
2022/08/09 05:13:37;;;;;;;4.47;1.30;;;25.60;45.70;;;;;;6247748;22;20012;-72
2022/08/09 05:16:03;;;;;;;3.00;1.08;;;25.60;45.70;;;;;;6247629;22;20031;-76
2022/08/09 05:18:29;;;;;;;7.85;1.30;;;25.60;45.60;;;;;;6246962;23;20343;-66
2022/08/09 05:21:00;;;;;;;3.03;1.27;;;25.70;45.70;;;;;;6247184;22;20374;-65
2022/08/09 05:23:26;;;;;;;2.60;1.25;;;25.60;45.40;;;;;;6247160;22;20343;-73
2022/08/09 05:25:52;;;;;;;2.47;1.25;;;25.70;45.50;;;;;;6246573;23;20003;-73
2022/08/09 05:28:19;;;;;;;5.55;1.13;;;25.70;45.70;;;;;;6246438;22;20016;-69
2022/08/09 05:30:45;;;;;;;3.92;1.20;;;25.70;46.00;;;;;;6247132;22;20044;-66
2022/08/09 05:33:11;;;;;;;3.03;1.40;;;25.80;45.90;;;;;;6245513;22;20000;-66
2022/08/09 05:35:36;;;;;;;3.30;1.33;;;25.70;45.60;;;;;;6246609;22;20004;-66
2022/08/09 05:38:02;;;;;;;4.72;1.40;;;25.80;45.50;;;;;;6247260;23;20000;-67
2022/08/09 05:40:28;;;;;;;6.07;1.42;;;25.80;45.40;;;;;;6247000;23;20008;-66
2022/08/09 05:42:55;;;;;;;3.42;1.42;;;25.80;45.30;;;;;;6246329;22;20015;-75
2022/08/09 05:45:20;;;;;;;4.95;1.42;;;25.80;45.00;;;;;;6245899;22;20427;-74
2022/08/09 05:47:46;;;;;;;4.50;1.40;;;25.90;45.00;;;;;;6245129;23;20012;-66
2022/08/09 05:50:12;;;;;;;2.58;1.17;;;25.90;44.90;;;;;;6245938;23;20011;-66
2022/08/09 05:52:40;;;;;;;4.93;1.40;;;25.90;44.80;;;;;;6245988;23;20000;-66
2022/08/09 05:55:07;;;;;;;5.50;1.30;;;25.90;44.90;;;;;;6246955;22;20301;-66
2022/08/09 05:57:36;;;;;;;5.20;1.70;;;25.90;45.00;;;;;;6246937;22;20062;-67
2022/08/09 06:00:03;;;;;;;3.78;1.40;;;26.00;44.90;;;;;;6247346;22;20331;-66
2022/08/09 06:02:29;;;;;;;7.10;1.17;;;26.00;44.90;;;;;;6246686;22;20016;-66
2022/08/09 06:04:55;;;;;;;5.07;1.20;;;26.00;44.90;;;;;;6246833;23;20126;-66
2022/08/09 06:07:20;;;;;;;6.88;1.63;;;26.10;45.10;;;;;;6247272;23;20000;-66
2022/08/09 06:09:46;;;;;;;2.75;1.10;;;26.10;44.70;;;;;;6247072;23;20015;-70
2022/08/09 06:12:12;;;;;;;7.70;1.40;;;26.10;44.20;;;;;;6247134;22;20000;-72
2022/08/09 06:14:37;;;;;;;4.68;1.10;;;26.20;44.10;;;;;;6247516;22;20040;-66
2022/08/09 06:17:03;;;;;;;6.78;1.38;;;26.20;43.90;;;;;;6247471;23;20443;-66
2022/08/09 06:19:29;;;;;;;3.42;1.30;;;26.20;44.00;;;;;;6246938;23;20438;-67
2022/08/09 06:21:54;;;;;;;6.03;1.30;;;26.20;44.20;;;;;;6247129;23;20004;-66
2022/08/09 06:24:20;;;;;;;1.80;0.93;;;26.30;44.30;;;;;;6247124;23;20000;-74
2022/08/09 06:26:46;;;;;;;6.13;1.30;;;26.30;44.20;;;;;;6246856;23;20020;-76
2022/08/09 06:29:12;;;;;;;3.03;1.30;;;26.30;44.20;;;;;;6246988;22;20004;-73
2022/08/09 06:31:37;;;;;;;4.65;1.27;;;26.30;44.00;;;;;;6247364;22;20364;-71
2022/08/09 06:34:03;;;;;;;4.38;1.30;;;26.40;43.90;;;;;;6246909;23;20327;-75
2022/08/09 06:36:29;;;;;;;6.10;1.40;;;26.50;43.90;;;;;;6247051;23;20040;-66
2022/08/09 06:38:55;;;;;;;7.45;1.35;;;26.50;43.30;;;;;;6246850;22;20374;-65
2022/08/09 06:41:21;;;;;;;4.70;1.30;;;26.60;43.00;;;;;;6246747;23;20004;-66
2022/08/09 06:43:47;;;;;;;4.55;1.20;;;26.60;42.90;;;;;;6246995;23;20004;-66
2022/08/09 06:46:13;;;;;;;1.73;1.00;;;26.60;43.10;;;;;;6246769;22;20019;-71
2022/08/09 06:48:42;;;;;;;8.13;1.85;;;26.60;42.80;;;;;;6246563;22;20012;-66
2022/08/09 06:51:11;;;;;;;2.90;1.10;;;26.70;42.70;;;;;;6246976;22;20362;-76
2022/08/09 06:53:37;;;;;;;2.25;1.20;;;26.70;42.60;;;;;;6246727;22;20339;-75
2022/08/09 06:56:03;;;;;;;3.60;1.60;;;26.80;42.30;;;;;;6246733;22;20000;-75
2022/08/09 06:58:29;;;;;;;5.75;1.50;;;26.80;42.20;;;;;;6246755;22;20450;-77
2022/08/09 07:00:55;;;;;;;4.93;1.30;;;26.80;42.30;;;;;;6246938;23;20004;-74
2022/08/09 07:03:22;;;;;;;3.88;1.40;;;26.90;42.30;;;;;;6246440;23;20105;-75
2022/08/09 07:05:47;;;;;;;2.45;1.25;;;26.90;42.30;;;;;;6246575;22;20050;-76
2022/08/09 07:08:13;;;;;;;3.97;1.40;;;27.00;42.30;;;;;;6246414;23;20016;-75
2022/08/09 07:10:39;;;;;;;3.55;1.30;;;27.00;42.20;;;;;;6246937;22;20520;-76
2022/08/09 07:13:05;;;;;;;2.72;1.00;;;27.00;42.20;;;;;;6246542;22;20000;-75
2022/08/09 07:15:30;;;;;;;3.58;1.33;;;27.00;41.60;;;;;;6245893;22;20423;-75
2022/08/09 07:17:56;;;;;;;5.57;1.30;;;27.10;41.60;;;;;;6246412;23;20011;-74
2022/08/09 07:20:24;;;;;;;4.82;1.10;;;27.10;41.70;;;;;;6246846;22;20022;-76
2022/08/09 07:22:53;;;;;;;3.40;1.23;;;27.10;41.70;;;;;;6247041;22;20032;-67
2022/08/09 07:25:19;;;;;;;4.35;1.50;;;27.20;41.60;;;;;;6246730;22;20034;-66
2022/08/09 07:27:45;;;;;;;3.70;1.13;;;27.20;41.40;;;;;;6246293;22;20023;-76
2022/08/09 07:30:12;;;;;;;2.80;1.60;;;27.30;41.50;;;;;;6246396;22;20432;-76
2022/08/09 07:32:39;;;;;;;5.57;1.55;;;27.30;42.00;;;;;;6246317;23;20019;-77
2022/08/09 07:35:07;;;;;;;2.33;1.35;;;27.40;41.40;;;;;;6246514;22;20004;-66
2022/08/09 07:37:33;;;;;;;5.20;1.20;;;27.40;41.20;;;;;;6246557;22;20089;-66
2022/08/09 07:39:58;;;;;;;6.40;1.60;;;27.40;41.10;;;;;;6246199;23;20407;-67
2022/08/09 07:42:24;;;;;;;4.05;1.48;;;27.50;41.20;;;;;;6246198;23;20001;-66
2022/08/09 07:44:50;;;;;;;3.53;1.38;;;27.60;41.30;;;;;;6246193;22;20392;-68
2022/08/09 10:20:16;;;;;;;3.25;1.40;;;30.50;35.40;;;;;;6106851;23;1348214;-66
2022/08/09 10:22:42;;;;;;;8.18;1.40;;;30.60;35.10;;;;;;6155946;23;20046;-75
2022/08/09 10:25:09;;;;;;;5.88;1.30;;;30.50;34.90;;;;;;6155841;23;20002;-66
2022/08/09 10:27:35;;;;;;;5.07;1.30;;;30.50;34.90;;;;;;6156004;23;20016;-76
2022/08/09 10:30:03;;;;;;;3.28;1.40;;;30.60;35.20;;;;;;6156132;23;20084;-76
2022/08/09 10:32:29;;;;;;;5.75;1.60;;;30.70;35.20;;;;;;6156010;23;20001;-66
2022/08/09 10:34:55;;;;;;;3.40;1.48;;;30.70;35.00;;;;;;6156337;23;20028;-66
2022/08/09 10:37:22;;;;;;;3.28;1.60;;;30.80;34.90;;;;;;6156251;23;20008;-66
2022/08/09 10:39:49;;;;;;;5.45;1.40;;;30.80;34.60;;;;;;6155985;23;19998;-66
2022/08/09 10:42:15;;;;;;;2.20;1.17;;;30.80;34.50;;;;;;6155725;23;20006;-66
2022/08/09 10:44:59;;;;;;;5.05;1.65;;;30.90;34.50;;;;;;6154191;23;20008;-64
2022/08/09 10:47:32;;;;;;;6.07;1.50;;;30.90;34.60;;;;;;6155936;23;20009;-65
2022/08/09 10:50:06;;;;;;;4.90;1.50;;;30.90;34.40;;;;;;6156235;23;20484;-75
2022/08/09 10:53:04;;;;;;;3.38;1.27;;;30.90;34.40;;;;;;6155823;23;20005;-66
2022/08/09 10:55:31;;;;;;;3.38;1.50;;;30.90;34.50;;;;;;6156318;23;20108;-66
2022/08/09 10:57:57;;;;;;;5.82;1.48;;;31.00;34.60;;;;;;6155240;23;20005;-66
2022/08/09 11:00:41;;;;;;;4.55;1.35;;;31.00;34.50;;;;;;6155285;23;20005;-67
2022/08/09 11:03:21;;;;;;;8.68;1.60;;;31.00;34.40;;;;;;6155277;23;20001;-77
2022/08/09 11:06:21;;;;;;;4.47;1.40;;;31.10;34.20;;;;;;6155301;23;20022;-66
2022/08/09 11:08:47;;;;;;;3.63;1.25;;;31.10;34.40;;;;;;6152095;23;20009;-66
2022/08/09 11:11:17;;;;;;;2.42;1.50;;;31.20;34.30;;;;;;6151673;23;20009;-66
2022/08/09 11:13:43;;;;;;;3.78;1.60;;;31.30;34.20;;;;;;6151649;23;20006;-66
2022/08/09 11:16:34;;;;;;;4.85;1.65;;;31.30;34.10;;;;;;6154671;23;20055;-66
2022/08/09 11:19:00;;;;;;;3.63;1.50;;;31.40;34.10;;;;;;6154721;23;20013;-66
2022/08/09 11:22:06;;;;;;;3.55;1.60;;;31.40;34.10;;;;;;6154743;23;19998;-71
2022/08/09 11:25:02;;;;;;;3.67;1.40;;;31.50;34.10;;;;;;6036146;23;20030;-66
2022/08/09 11:27:40;;;;;;;4.05;1.50;;;31.50;34.10;;;;;;6036148;23;20054;-67
2022/08/09 11:30:12;;;;;;;6.43;1.92;;;31.60;34.00;;;;;;6127833;23;20025;-66
2022/08/09 11:32:50;;;;;;;3.63;1.60;;;31.60;33.60;;;;;;6155244;23;20057;-67
2022/08/09 11:35:40;;;;;;;3.60;1.58;;;31.60;33.80;;;;;;6155180;23;20009;-66
2022/08/09 11:38:15;;;;;;;5.70;1.50;;;31.60;33.90;;;;;;6154984;23;20305;-65
2022/08/09 11:40:41;;;;;;;4.82;1.40;;;31.50;34.10;;;;;;6155183;23;20008;-66
2022/08/09 11:43:06;;;;;;;2.63;1.50;;;31.60;33.90;;;;;;6155005;23;20001;-66
2022/08/09 11:45:41;;;;;;;2.83;1.15;;;31.60;33.90;;;;;;6154791;23;20033;-66
2022/08/09 11:48:24;;;;;;;5.97;1.33;;;31.70;33.70;;;;;;6154638;23;20036;-66
2022/08/09 11:50:55;;;;;;;6.50;1.55;;;31.70;33.90;;;;;;6152186;23;20013;-66
2022/08/09 11:53:23;;;;;;;5.43;1.48;;;31.80;34.10;;;;;;6151586;23;20010;-67
2022/08/09 11:55:51;;;;;;;3.83;1.70;;;31.90;33.70;;;;;;6153084;23;20006;-66
2022/08/09 11:58:17;;;;;;;4.25;1.30;;;31.90;33.90;;;;;;6152396;23;20001;-66
2022/08/09 12:00:51;;;;;;;6.53;1.83;;;31.90;34.10;;;;;;6150856;23;20063;-65
2022/08/09 12:03:19;;;;;;;3.40;1.63;;;32.00;34.10;;;;;;6150215;23;20028;-66
2022/08/09 12:05:46;;;;;;;2.17;1.65;;;32.10;34.00;;;;;;6154952;23;20376;-66
2022/08/09 12:08:13;;;;;;;4.47;2.20;;;32.20;33.90;;;;;;6154477;23;20005;-66
2022/08/09 12:10:49;;;;;;;6.25;2.22;;;32.20;34.00;;;;;;6155661;23;20051;-67
2022/08/09 12:13:50;;;;;;;3.30;1.50;;;32.20;33.70;;;;;;6154786;23;20006;-66
2022/08/09 12:16:23;;;;;;;4.97;1.70;;;32.30;34.00;;;;;;6092205;23;20085;-66
2022/08/09 12:18:51;;;;;;;6.22;1.60;;;32.30;33.70;;;;;;6155115;23;20017;-67
2022/08/09 12:21:31;;;;;;;2.90;1.42;;;32.30;33.70;;;;;;6154988;23;20453;-66
2022/08/09 12:24:04;;;;;;;2.73;1.70;;;32.30;33.70;;;;;;6155146;23;20005;-66
2022/08/09 12:26:46;;;;;;;12.00;1.90;;;32.30;33.70;;;;;;6155228;23;20257;-66
2022/08/09 12:29:20;;;;;;;5.60;1.42;;;32.40;33.60;;;;;;6154708;23;20009;-66
2022/08/09 12:31:48;;;;;;;8.70;1.40;;;32.40;33.70;;;;;;6155147;23;20002;-66
2022/08/09 12:34:15;;;;;;;4.90;1.52;;;32.40;33.80;;;;;;6157223;23;20068;-66
2022/08/09 12:36:54;;;;;;;3.05;1.60;;;32.40;33.90;;;;;;6156589;23;20372;-66
2022/08/09 12:39:20;;;;;;;3.63;1.52;;;32.50;33.90;;;;;;6156479;23;20006;-66
2022/08/09 12:41:46;;;;;;;5.80;1.80;;;32.50;34.10;;;;;;6156330;23;19997;-65
2022/08/09 12:44:12;;;;;;;8.00;1.70;;;32.50;34.30;;;;;;6156064;23;20012;-66
2022/08/09 12:46:48;;;;;;;6.07;1.50;;;32.60;34.40;;;;;;6156875;23;20345;-67
2022/08/09 12:49:14;;;;;;;5.90;1.60;;;32.60;34.30;;;;;;6154962;23;20002;-66
2022/08/09 12:51:51;;;;;;;4.18;1.50;;;32.60;34.30;;;;;;6153860;23;20088;-67
2022/08/09 12:54:17;;;;;;;2.88;1.38;;;32.70;34.20;;;;;;6154813;23;20048;-66
2022/08/09 12:56:47;;;;;;;4.57;1.60;;;32.80;34.20;;;;;;6156609;23;19998;-66
2022/08/09 12:59:21;;;;;;;5.00;1.42;;;32.80;34.30;;;;;;6156363;23;20002;-76
2022/08/09 13:02:05;;;;;;;6.00;1.60;;;32.80;34.30;;;;;;6156304;23;20428;-77
2022/08/09 13:04:32;;;;;;;5.93;1.50;;;32.90;34.30;;;;;;6156701;23;20006;-76
2022/08/09 13:07:09;;;;;;;5.55;1.33;;;32.90;34.40;;;;;;6156421;23;20060;-65
2022/08/09 13:09:35;;;;;;;6.10;1.38;;;32.90;34.00;;;;;;6153092;23;20025;-66
2022/08/09 13:12:02;;;;;;;44.15;2.80;;;32.90;33.90;;;;;;6153114;23;20009;-66
2022/08/09 13:14:29;;;;;;;2.88;1.20;;;32.90;34.20;;;;;;6154343;23;20001;-65
2022/08/09 13:17:01;;;;;;;52.20;2.50;;;32.90;34.10;;;;;;6154491;23;20009;-66
2022/08/09 13:19:35;;;;;;;5.03;1.15;;;32.90;34.10;;;;;;6153204;23;20085;-69
2022/08/09 13:22:16;;;;;;;18.83;1.70;;;32.90;34.20;;;;;;6154374;23;20008;-67
2022/08/09 13:24:57;;;;;;;7.17;1.73;;;32.90;34.20;;;;;;6156558;23;20033;-72
2022/08/09 13:27:28;;;;;;;;;;;32.90;34.50;;;;;;6156787;23;20088;-67
2022/08/09 13:29:59;;;;;;;4.03;1.38;;;32.90;34.30;;;;;;6156126;23;19927;-76
2022/08/09 13:32:41;;;;;;;20.95;2.92;;;32.90;34.40;;;;;;6156079;23;20019;-66
2022/08/09 13:35:07;;;;;;;13.98;1.73;;;32.90;34.20;;;;;;6156221;23;20025;-67
2022/08/09 13:37:32;;;;;;;6.97;1.40;;;32.90;34.20;;;;;;6156411;23;20333;-66
2022/08/09 13:39:58;;;;;;;3.67;1.15;;;32.80;34.30;;;;;;6156676;23;20032;-66
2022/08/09 13:42:23;;;;;;;3.75;1.25;;;32.80;34.30;;;;;;6156701;23;20052;-66
2022/08/09 13:44:49;;;;;;;4.70;1.70;;;32.80;34.20;;;;;;6154816;23;20009;-65
2022/08/09 13:47:16;;;;;;;5.00;1.25;;;32.80;34.30;;;;;;6156883;23;20397;-67
2022/08/09 13:49:43;;;;;;;10.40;1.70;;;32.80;34.20;;;;;;6156438;23;20008;-65
2022/08/09 13:52:10;;;;;;;7.20;1.30;;;32.80;34.30;;;;;;6157427;23;20032;-67
2022/08/09 13:54:36;;;;;;;4.55;1.60;;;32.80;34.30;;;;;;6156739;23;20005;-78
2022/08/09 13:57:02;;;;;;;3.33;1.30;;;32.80;34.50;;;;;;6156062;23;20080;-65
2022/08/09 13:59:28;;;;;;;8.55;1.35;;;32.80;34.40;;;;;;6155917;23;20309;-67
2022/08/09 14:01:53;;;;;;;6.00;1.20;;;32.80;34.50;;;;;;6156204;23;20036;-74
2022/08/09 14:04:19;;;;;;;4.68;1.45;;;32.80;34.20;;;;;;6156517;23;20024;-67
2022/08/09 14:06:59;;;;;;;6.00;1.30;;;32.70;34.40;;;;;;6156121;23;20013;-66
2022/08/09 14:09:26;;;;;;;3.88;1.20;;;32.70;34.30;;;;;;6156185;23;20008;-77
2022/08/09 14:11:54;;;;;;;2.92;1.10;;;32.70;34.30;;;;;;6155999;23;20437;-66
2022/08/09 14:14:20;;;;;;;3.38;1.45;;;32.70;34.30;;;;;;6155656;23;20077;-77
2022/08/09 14:16:47;;;;;;;3.85;1.33;;;32.70;34.30;;;;;;6156618;23;20033;-75
2022/08/09 14:19:13;;;;;;;2.10;1.20;;;32.80;34.40;;;;;;6155958;23;20040;-73
2022/08/09 14:21:39;;;;;;;4.20;1.08;;;32.80;34.40;;;;;;6156067;23;20329;-77
2022/08/09 14:24:05;;;;;;;5.10;1.48;;;32.80;34.60;;;;;;6156349;23;20048;-77
2022/08/09 14:26:32;;;;;;;2.13;1.20;;;32.80;34.60;;;;;;6156612;23;20425;-79
2022/08/09 14:29:04;;;;;;;3.88;1.30;;;32.90;34.50;;;;;;6156487;23;20016;-75
2022/08/09 14:31:30;;;;;;;3.47;1.20;;;32.90;34.40;;;;;;6156279;23;20013;-80
2022/08/09 14:33:56;;;;;;;3.22;1.33;;;32.90;34.40;;;;;;6156469;23;19997;-68
2022/08/09 14:36:21;;;;;;;3.05;1.48;;;32.90;34.20;;;;;;6156272;23;20005;-79
2022/08/09 14:38:47;;;;;;;3.08;1.13;;;32.90;34.20;;;;;;6156236;23;20009;-68
2022/08/09 14:41:13;;;;;;;1.88;1.23;;;32.90;34.10;;;;;;6156236;23;20006;-75
2022/08/09 14:43:39;;;;;;;3.67;1.23;;;32.90;34.30;;;;;;6156348;23;20002;-68
2022/08/09 14:46:04;;;;;;;7.00;1.25;;;32.90;34.20;;;;;;6156126;23;20010;-69
2022/08/09 14:48:30;;;;;;;4.10;1.40;;;32.90;34.30;;;;;;6155850;23;19998;-69
2022/08/09 14:50:56;;;;;;;3.58;1.63;;;32.90;34.30;;;;;;6156299;23;20020;-78
2022/08/09 14:53:22;;;;;;;4.15;1.30;;;32.90;34.30;;;;;;6155479;23;20001;-79
2022/08/09 14:55:48;;;;;;;2.20;1.30;;;32.90;34.70;;;;;;6156240;23;20013;-71
2022/08/09 14:58:13;;;;;;;6.05;1.20;;;32.90;34.60;;;;;;6155797;23;20002;-75
2022/08/09 15:00:39;;;;;;;26.13;6.53;;;32.90;34.20;;;;;;6156197;23;20033;-79
2022/08/09 15:03:07;;;;;;;12.98;2.92;;;32.90;34.70;;;;;;6155833;23;20059;-78
2022/08/09 15:05:33;;;;;;;13.07;1.65;;;32.90;35.40;;;;;;6155686;23;20009;-75
2022/08/09 15:07:59;;;;;;;5.93;1.17;;;32.80;35.60;;;;;;6156154;23;20017;-80
2022/08/09 15:10:26;;;;;;;5.78;1.40;;;32.80;35.90;;;;;;6156164;23;20002;-75
2022/08/09 15:12:53;;;;;;;5.13;1.52;;;32.80;35.40;;;;;;6155797;23;20005;-77
2022/08/09 15:15:19;;;;;;;3.85;1.23;;;32.70;35.20;;;;;;6155968;23;20008;-79
2022/08/09 15:17:45;;;;;;;5.20;1.42;;;32.70;35.00;;;;;;6155877;23;20006;-74
2022/08/09 15:20:11;;;;;;;4.20;1.38;;;32.60;34.70;;;;;;6155401;23;20019;-74
2022/08/09 15:22:38;;;;;;;3.65;1.20;;;32.60;35.00;;;;;;6157192;23;20033;-76
2022/08/09 15:25:05;;;;;;;3.30;1.17;;;32.60;35.30;;;;;;6157352;23;20001;-76
2022/08/09 15:27:31;;;;;;;3.08;1.08;;;32.60;35.20;;;;;;6155703;23;20013;-71
2022/08/09 15:29:57;;;;;;;2.63;1.17;;;32.60;34.80;;;;;;6154246;23;20084;-71